sensor_id;sensor_type;location;lat;lon;timestamp;P1;durP1;ratioP1;P2;durP2;ratioP2
56593;SDS011;42474;51.660;5.824;2024-01-10T00:00:36;6.27;;;4.33;;
56593;SDS011;42474;51.660;5.824;2024-01-10T00:04:34;9.11;;;5.05;;
56593;SDS011;42474;51.660;5.824;2024-01-10T00:08:34;8.35;;;5.54;;
56593;SDS011;42474;51.660;5.824;2024-01-10T00:12:34;7.6;;;4.91;;
56593;SDS011;42474;51.660;5.824;2024-01-10T00:16:35;8.58;;;5.65;;
56593;SDS011;42474;51.660;5.824;2024-01-10T00:20:34;8.06;;;5.42;;
56593;SDS011;42474;51.660;5.824;2024-01-10T00:24:35;8.95;;;5.66;;
56593;SDS011;42474;51.660;5.824;2024-01-10T00:28:35;9.15;;;5.64;;
56593;SDS011;42474;51.660;5.824;2024-01-10T00:32:34;9.42;;;5.47;;
56593;SDS011;42474;51.660;5.824;2024-01-10T00:36:34;8.6;;;5.99;;
56593;SDS011;42474;51.660;5.824;2024-01-10T00:40:35;8.86;;;5.49;;
56593;SDS011;42474;51.660;5.824;2024-01-10T00:44:35;9.77;;;5.52;;
56593;SDS011;42474;51.660;5.824;2024-01-10T00:48:35;7.64;;;5.22;;
56593;SDS011;42474;51.660;5.824;2024-01-10T00:52:35;8.57;;;5.97;;
56593;SDS011;42474;51.660;5.824;2024-01-10T00:56:34;8.45;;;5.42;;
56593;SDS011;42474;51.660;5.824;2024-01-10T01:00:35;9.69;;;6.06;;
56593;SDS011;42474;51.660;5.824;2024-01-10T01:04:34;8.39;;;5.62;;
56593;SDS011;42474;51.660;5.824;2024-01-10T01:08:35;8.51;;;5.22;;
56593;SDS011;42474;51.660;5.824;2024-01-10T01:12:35;7.91;;;5.43;;
56593;SDS011;42474;51.660;5.824;2024-01-10T01:16:35;8.33;;;5.71;;
56593;SDS011;42474;51.660;5.824;2024-01-10T01:20:35;9.53;;;5.21;;
56593;SDS011;42474;51.660;5.824;2024-01-10T01:24:35;8.95;;;5.51;;
56593;SDS011;42474;51.660;5.824;2024-01-10T01:32:35;8.01;;;5.24;;
56593;SDS011;42474;51.660;5.824;2024-01-10T01:36:35;7.72;;;5.21;;
56593;SDS011;42474;51.660;5.824;2024-01-10T01:40:35;9.97;;;5.97;;
56593;SDS011;42474;51.660;5.824;2024-01-10T01:44:35;9.72;;;5.73;;
56593;SDS011;42474;51.660;5.824;2024-01-10T01:48:35;9.26;;;5.59;;
56593;SDS011;42474;51.660;5.824;2024-01-10T01:52:35;7.38;;;5.14;;
56593;SDS011;42474;51.660;5.824;2024-01-10T01:56:36;9.18;;;5.5;;
56593;SDS011;42474;51.660;5.824;2024-01-10T02:00:35;9.25;;;6.01;;
56593;SDS011;42474;51.660;5.824;2024-01-10T02:04:36;8.7;;;5.63;;
56593;SDS011;42474;51.660;5.824;2024-01-10T02:08:35;8.4;;;5.59;;
56593;SDS011;42474;51.660;5.824;2024-01-10T02:12:35;8.41;;;5.59;;
56593;SDS011;42474;51.660;5.824;2024-01-10T02:16:35;8.82;;;5.36;;
56593;SDS011;42474;51.660;5.824;2024-01-10T02:20:35;7.78;;;5.33;;
56593;SDS011;42474;51.660;5.824;2024-01-10T02:24:35;9.57;;;5.44;;
56593;SDS011;42474;51.660;5.824;2024-01-10T02:28:35;8.63;;;5.65;;
56593;SDS011;42474;51.660;5.824;2024-01-10T02:36:35;10.19;;;5.65;;
56593;SDS011;42474;51.660;5.824;2024-01-10T02:40:35;10.03;;;5.87;;
56593;SDS011;42474;51.660;5.824;2024-01-10T02:44:35;10.01;;;5.79;;
56593;SDS011;42474;51.660;5.824;2024-01-10T02:48:35;11.01;;;6.59;;
56593;SDS011;42474;51.660;5.824;2024-01-10T02:52:35;9.15;;;5.77;;
56593;SDS011;42474;51.660;5.824;2024-01-10T02:56:35;9.62;;;5.19;;
56593;SDS011;42474;51.660;5.824;2024-01-10T03:00:35;10.72;;;5.31;;
56593;SDS011;42474;51.660;5.824;2024-01-10T03:04:35;9.5;;;6.26;;
56593;SDS011;42474;51.660;5.824;2024-01-10T03:08:35;9.87;;;5.73;;
56593;SDS011;42474;51.660;5.824;2024-01-10T03:12:35;8.6;;;5.94;;
56593;SDS011;42474;51.660;5.824;2024-01-10T03:16:35;10.21;;;6.13;;
56593;SDS011;42474;51.660;5.824;2024-01-10T03:20:35;8.96;;;5.81;;
56593;SDS011;42474;51.660;5.824;2024-01-10T03:24:35;9.26;;;5.62;;
56593;SDS011;42474;51.660;5.824;2024-01-10T03:28:35;9.96;;;5.83;;
56593;SDS011;42474;51.660;5.824;2024-01-10T03:32:35;10.04;;;6.15;;
56593;SDS011;42474;51.660;5.824;2024-01-10T03:36:35;10.01;;;6.17;;
56593;SDS011;42474;51.660;5.824;2024-01-10T03:40:35;10.52;;;6.33;;
56593;SDS011;42474;51.660;5.824;2024-01-10T03:44:35;8.53;;;5.66;;
56593;SDS011;42474;51.660;5.824;2024-01-10T03:48:35;9.42;;;5.21;;
56593;SDS011;42474;51.660;5.824;2024-01-10T03:52:35;8.53;;;5.51;;
56593;SDS011;42474;51.660;5.824;2024-01-10T03:56:35;9.92;;;6.24;;
56593;SDS011;42474;51.660;5.824;2024-01-10T04:00:35;9.8;;;5.75;;
56593;SDS011;42474;51.660;5.824;2024-01-10T04:04:36;10.22;;;6.46;;
56593;SDS011;42474;51.660;5.824;2024-01-10T04:08:35;12.56;;;6.61;;
56593;SDS011;42474;51.660;5.824;2024-01-10T04:12:35;9.35;;;6.46;;
56593;SDS011;42474;51.660;5.824;2024-01-10T04:16:35;9.38;;;6.09;;
56593;SDS011;42474;51.660;5.824;2024-01-10T04:20:35;10.68;;;6.19;;
56593;SDS011;42474;51.660;5.824;2024-01-10T04:24:35;9.26;;;5.25;;
56593;SDS011;42474;51.660;5.824;2024-01-10T04:28:35;10.94;;;6.74;;
56593;SDS011;42474;51.660;5.824;2024-01-10T04:32:35;9.44;;;5.07;;
56593;SDS011;42474;51.660;5.824;2024-01-10T04:36:35;11.57;;;6.59;;
56593;SDS011;42474;51.660;5.824;2024-01-10T04:40:35;10.66;;;6.19;;
56593;SDS011;42474;51.660;5.824;2024-01-10T04:44:35;9.52;;;5.53;;
56593;SDS011;42474;51.660;5.824;2024-01-10T04:48:35;9.02;;;6;;
56593;SDS011;42474;51.660;5.824;2024-01-10T04:52:35;12.82;;;6.27;;
56593;SDS011;42474;51.660;5.824;2024-01-10T04:56:35;8.99;;;5.49;;
56593;SDS011;42474;51.660;5.824;2024-01-10T05:00:35;9.06;;;5.38;;
56593;SDS011;42474;51.660;5.824;2024-01-10T05:04:35;9.25;;;5.85;;
56593;SDS011;42474;51.660;5.824;2024-01-10T05:08:35;10.57;;;5.9;;
56593;SDS011;42474;51.660;5.824;2024-01-10T05:12:35;13.27;;;5.83;;
56593;SDS011;42474;51.660;5.824;2024-01-10T05:16:35;9.5;;;5.74;;
56593;SDS011;42474;51.660;5.824;2024-01-10T05:20:35;11.08;;;6.67;;
56593;SDS011;42474;51.660;5.824;2024-01-10T05:24:35;8.65;;;5.82;;
56593;SDS011;42474;51.660;5.824;2024-01-10T05:28:35;12.51;;;6.38;;
56593;SDS011;42474;51.660;5.824;2024-01-10T05:32:35;10.39;;;6.47;;
56593;SDS011;42474;51.660;5.824;2024-01-10T05:36:35;8.72;;;5.81;;
56593;SDS011;42474;51.660;5.824;2024-01-10T05:40:35;9.71;;;6.27;;
56593;SDS011;42474;51.660;5.824;2024-01-10T05:44:35;12.12;;;6.91;;
56593;SDS011;42474;51.660;5.824;2024-01-10T05:48:35;9.61;;;6.21;;
56593;SDS011;42474;51.660;5.824;2024-01-10T05:52:35;12.1;;;7.19;;
56593;SDS011;42474;51.660;5.824;2024-01-10T05:56:35;11.78;;;6.7;;
56593;SDS011;42474;51.660;5.824;2024-01-10T06:00:35;11.34;;;7.02;;
56593;SDS011;42474;51.660;5.824;2024-01-10T06:04:35;10.6;;;7.01;;
56593;SDS011;42474;51.660;5.824;2024-01-10T06:08:35;11.57;;;6.22;;
56593;SDS011;42474;51.660;5.824;2024-01-10T06:12:35;11.75;;;6.69;;
56593;SDS011;42474;51.660;5.824;2024-01-10T06:16:35;10.9;;;7.41;;
56593;SDS011;42474;51.660;5.824;2024-01-10T06:20:35;11.12;;;6.77;;
56593;SDS011;42474;51.660;5.824;2024-01-10T06:24:35;9.35;;;6.07;;
56593;SDS011;42474;51.660;5.824;2024-01-10T06:28:35;11.5;;;6.9;;
56593;SDS011;42474;51.660;5.824;2024-01-10T06:32:35;11.52;;;7.31;;
56593;SDS011;42474;51.660;5.824;2024-01-10T06:36:35;12.66;;;7.18;;
56593;SDS011;42474;51.660;5.824;2024-01-10T06:40:35;11.76;;;6.87;;
56593;SDS011;42474;51.660;5.824;2024-01-10T06:44:35;12.42;;;6.84;;
56593;SDS011;42474;51.660;5.824;2024-01-10T06:48:35;12.45;;;6.35;;
56593;SDS011;42474;51.660;5.824;2024-01-10T06:52:35;14.95;;;6.54;;
56593;SDS011;42474;51.660;5.824;2024-01-10T06:56:35;14.82;;;7.36;;
56593;SDS011;42474;51.660;5.824;2024-01-10T07:00:35;11.08;;;6.19;;
56593;SDS011;42474;51.660;5.824;2024-01-10T07:04:37;13.4;;;7.64;;
56593;SDS011;42474;51.660;5.824;2024-01-10T07:08:35;11.47;;;6.84;;
56593;SDS011;42474;51.660;5.824;2024-01-10T07:12:35;12.96;;;7.37;;
56593;SDS011;42474;51.660;5.824;2024-01-10T07:16:35;11.84;;;6.83;;
56593;SDS011;42474;51.660;5.824;2024-01-10T07:20:35;10.79;;;6.73;;
56593;SDS011;42474;51.660;5.824;2024-01-10T07:24:35;11.7;;;6.49;;
56593;SDS011;42474;51.660;5.824;2024-01-10T07:28:35;11.78;;;6.51;;
56593;SDS011;42474;51.660;5.824;2024-01-10T07:32:35;17.56;;;7.17;;
56593;SDS011;42474;51.660;5.824;2024-01-10T07:36:41;13.92;;;7.22;;
56593;SDS011;42474;51.660;5.824;2024-01-10T07:40:35;12.79;;;7.17;;
56593;SDS011;42474;51.660;5.824;2024-01-10T07:44:35;12.68;;;7.31;;
56593;SDS011;42474;51.660;5.824;2024-01-10T07:48:35;12.12;;;7.55;;
56593;SDS011;42474;51.660;5.824;2024-01-10T07:52:35;14.51;;;7.93;;
56593;SDS011;42474;51.660;5.824;2024-01-10T07:56:35;13.34;;;8;;
56593;SDS011;42474;51.660;5.824;2024-01-10T08:00:35;13.41;;;8.19;;
56593;SDS011;42474;51.660;5.824;2024-01-10T08:04:35;12.51;;;7.66;;
56593;SDS011;42474;51.660;5.824;2024-01-10T08:08:35;14.88;;;8;;
56593;SDS011;42474;51.660;5.824;2024-01-10T08:12:35;15.72;;;8.79;;
56593;SDS011;42474;51.660;5.824;2024-01-10T08:16:35;14.52;;;8.36;;
56593;SDS011;42474;51.660;5.824;2024-01-10T08:20:35;13.43;;;7.98;;
56593;SDS011;42474;51.660;5.824;2024-01-10T08:24:35;13.7;;;8.22;;
56593;SDS011;42474;51.660;5.824;2024-01-10T08:28:35;12.6;;;7.7;;
56593;SDS011;42474;51.660;5.824;2024-01-10T08:32:35;15.42;;;8.88;;
56593;SDS011;42474;51.660;5.824;2024-01-10T08:36:35;16.82;;;9.16;;
56593;SDS011;42474;51.660;5.824;2024-01-10T08:40:35;13.96;;;7.78;;
56593;SDS011;42474;51.660;5.824;2024-01-10T08:44:35;13.27;;;8.68;;
56593;SDS011;42474;51.660;5.824;2024-01-10T08:48:35;13.79;;;7.59;;
56593;SDS011;42474;51.660;5.824;2024-01-10T08:52:35;14.68;;;7.93;;
56593;SDS011;42474;51.660;5.824;2024-01-10T08:56:35;14.99;;;7.34;;
56593;SDS011;42474;51.660;5.824;2024-01-10T09:00:35;13.21;;;7.56;;
56593;SDS011;42474;51.660;5.824;2024-01-10T09:04:35;16.73;;;8.67;;
56593;SDS011;42474;51.660;5.824;2024-01-10T09:08:35;16.79;;;8.89;;
56593;SDS011;42474;51.660;5.824;2024-01-10T09:12:35;14.51;;;8.67;;
56593;SDS011;42474;51.660;5.824;2024-01-10T09:16:35;16.65;;;8.92;;
56593;SDS011;42474;51.660;5.824;2024-01-10T09:20:35;17.48;;;9.13;;
56593;SDS011;42474;51.660;5.824;2024-01-10T09:24:35;15.66;;;9.05;;
56593;SDS011;42474;51.660;5.824;2024-01-10T09:28:35;14.1;;;7.95;;
56593;SDS011;42474;51.660;5.824;2024-01-10T09:32:35;13.83;;;8.55;;
56593;SDS011;42474;51.660;5.824;2024-01-10T09:36:35;15.97;;;9.04;;
56593;SDS011;42474;51.660;5.824;2024-01-10T09:40:35;15.07;;;8.58;;
56593;SDS011;42474;51.660;5.824;2024-01-10T09:44:35;19.24;;;10.66;;
56593;SDS011;42474;51.660;5.824;2024-01-10T09:48:35;18.19;;;9.78;;
56593;SDS011;42474;51.660;5.824;2024-01-10T09:52:41;19.43;;;10.62;;
56593;SDS011;42474;51.660;5.824;2024-01-10T09:56:35;17.42;;;8.96;;
56593;SDS011;42474;51.660;5.824;2024-01-10T10:00:36;16.52;;;9.6;;
56593;SDS011;42474;51.660;5.824;2024-01-10T10:04:36;19.05;;;11.73;;
56593;SDS011;42474;51.660;5.824;2024-01-10T10:08:35;19.17;;;10.73;;
56593;SDS011;42474;51.660;5.824;2024-01-10T10:12:44;18.61;;;10.78;;
56593;SDS011;42474;51.660;5.824;2024-01-10T10:16:35;21.82;;;11.43;;
56593;SDS011;42474;51.660;5.824;2024-01-10T10:20:35;18.95;;;11.67;;
56593;SDS011;42474;51.660;5.824;2024-01-10T10:24:35;18.26;;;11.76;;
56593;SDS011;42474;51.660;5.824;2024-01-10T10:28:35;20.61;;;10.88;;
56593;SDS011;42474;51.660;5.824;2024-01-10T10:32:35;20.11;;;11.53;;
56593;SDS011;42474;51.660;5.824;2024-01-10T10:36:35;18.89;;;11.48;;
56593;SDS011;42474;51.660;5.824;2024-01-10T10:40:35;23.85;;;14.01;;
56593;SDS011;42474;51.660;5.824;2024-01-10T10:44:36;19.94;;;11.35;;
56593;SDS011;42474;51.660;5.824;2024-01-10T10:48:36;19.85;;;11.68;;
56593;SDS011;42474;51.660;5.824;2024-01-10T10:52:35;18.78;;;11.89;;
56593;SDS011;42474;51.660;5.824;2024-01-10T10:56:36;20.84;;;12.92;;
56593;SDS011;42474;51.660;5.824;2024-01-10T11:00:35;22.63;;;13.51;;
56593;SDS011;42474;51.660;5.824;2024-01-10T11:04:35;20.88;;;12.37;;
56593;SDS011;42474;51.660;5.824;2024-01-10T11:08:37;18.86;;;11.77;;
56593;SDS011;42474;51.660;5.824;2024-01-10T11:12:48;21.97;;;11.16;;
56593;SDS011;42474;51.660;5.824;2024-01-10T11:20:48;18.28;;;11.98;;
56593;SDS011;42474;51.660;5.824;2024-01-10T11:24:35;24.51;;;12.45;;
56593;SDS011;42474;51.660;5.824;2024-01-10T11:28:36;20.66;;;13.56;;
56593;SDS011;42474;51.660;5.824;2024-01-10T11:32:35;22;;;13.36;;
56593;SDS011;42474;51.660;5.824;2024-01-10T11:36:35;22.16;;;14.12;;
56593;SDS011;42474;51.660;5.824;2024-01-10T11:40:46;25;;;14.67;;
56593;SDS011;42474;51.660;5.824;2024-01-10T11:44:46;23.86;;;14.04;;
56593;SDS011;42474;51.660;5.824;2024-01-10T11:48:37;22.42;;;13.77;;
56593;SDS011;42474;51.660;5.824;2024-01-10T11:52:36;23.32;;;14.12;;
56593;SDS011;42474;51.660;5.824;2024-01-10T11:56:38;20.94;;;12.96;;
56593;SDS011;42474;51.660;5.824;2024-01-10T12:00:35;21.65;;;14.07;;
56593;SDS011;42474;51.660;5.824;2024-01-10T12:04:35;21.19;;;14.4;;
56593;SDS011;42474;51.660;5.824;2024-01-10T12:08:35;20.07;;;12.86;;
56593;SDS011;42474;51.660;5.824;2024-01-10T12:12:35;21.78;;;13.93;;
56593;SDS011;42474;51.660;5.824;2024-01-10T12:16:35;21.73;;;12.86;;
56593;SDS011;42474;51.660;5.824;2024-01-10T12:20:36;20.14;;;13.87;;
56593;SDS011;42474;51.660;5.824;2024-01-10T12:24:42;21.84;;;13.46;;
56593;SDS011;42474;51.660;5.824;2024-01-10T12:28:35;20.22;;;13.58;;
56593;SDS011;42474;51.660;5.824;2024-01-10T12:32:35;21.4;;;13.07;;
56593;SDS011;42474;51.660;5.824;2024-01-10T12:36:35;21.1;;;12.18;;
56593;SDS011;42474;51.660;5.824;2024-01-10T12:40:35;20.25;;;12.42;;
56593;SDS011;42474;51.660;5.824;2024-01-10T12:44:35;20.24;;;12.64;;
56593;SDS011;42474;51.660;5.824;2024-01-10T12:48:35;22.1;;;13.27;;
56593;SDS011;42474;51.660;5.824;2024-01-10T12:52:35;20.16;;;13.23;;
56593;SDS011;42474;51.660;5.824;2024-01-10T12:56:35;22.9;;;13.59;;
56593;SDS011;42474;51.660;5.824;2024-01-10T13:00:35;19.33;;;12.09;;
56593;SDS011;42474;51.660;5.824;2024-01-10T13:04:35;21.23;;;13.34;;
56593;SDS011;42474;51.660;5.824;2024-01-10T13:08:35;19.87;;;12.91;;
56593;SDS011;42474;51.660;5.824;2024-01-10T13:12:35;19.75;;;13.01;;
56593;SDS011;42474;51.660;5.824;2024-01-10T13:16:35;21;;;13.66;;
56593;SDS011;42474;51.660;5.824;2024-01-10T13:20:35;24.11;;;13.49;;
56593;SDS011;42474;51.660;5.824;2024-01-10T13:24:35;19.58;;;12.22;;
56593;SDS011;42474;51.660;5.824;2024-01-10T13:28:35;18.84;;;11.96;;
56593;SDS011;42474;51.660;5.824;2024-01-10T13:32:35;21.51;;;14.21;;
56593;SDS011;42474;51.660;5.824;2024-01-10T13:36:35;19.36;;;11.75;;
56593;SDS011;42474;51.660;5.824;2024-01-10T13:40:35;18.2;;;11.76;;
56593;SDS011;42474;51.660;5.824;2024-01-10T13:44:35;20.55;;;13.97;;
56593;SDS011;42474;51.660;5.824;2024-01-10T13:48:35;22.21;;;13.92;;
56593;SDS011;42474;51.660;5.824;2024-01-10T13:52:35;19.9;;;13.05;;
56593;SDS011;42474;51.660;5.824;2024-01-10T13:56:35;21.7;;;13.09;;
56593;SDS011;42474;51.660;5.824;2024-01-10T14:00:35;20.39;;;12.71;;
56593;SDS011;42474;51.660;5.824;2024-01-10T14:04:35;20.41;;;13.71;;
56593;SDS011;42474;51.660;5.824;2024-01-10T14:08:35;19.93;;;12.74;;
56593;SDS011;42474;51.660;5.824;2024-01-10T14:12:35;20.82;;;14.43;;
56593;SDS011;42474;51.660;5.824;2024-01-10T14:16:35;21.31;;;14.38;;
56593;SDS011;42474;51.660;5.824;2024-01-10T14:20:35;17.73;;;12.87;;
56593;SDS011;42474;51.660;5.824;2024-01-10T14:24:35;19.23;;;13.47;;
56593;SDS011;42474;51.660;5.824;2024-01-10T14:28:35;19.54;;;12.48;;
56593;SDS011;42474;51.660;5.824;2024-01-10T14:32:35;19.38;;;12.07;;
56593;SDS011;42474;51.660;5.824;2024-01-10T14:36:37;19.3;;;12.67;;
56593;SDS011;42474;51.660;5.824;2024-01-10T14:40:35;23.06;;;13.84;;
56593;SDS011;42474;51.660;5.824;2024-01-10T14:44:35;22.53;;;13.75;;
56593;SDS011;42474;51.660;5.824;2024-01-10T14:48:35;21.15;;;15.22;;
56593;SDS011;42474;51.660;5.824;2024-01-10T14:52:35;21.8;;;13.95;;
56593;SDS011;42474;51.660;5.824;2024-01-10T14:56:35;23.36;;;15.3;;
56593;SDS011;42474;51.660;5.824;2024-01-10T15:00:35;20.52;;;14.24;;
56593;SDS011;42474;51.660;5.824;2024-01-10T15:04:38;22.75;;;14.28;;
56593;SDS011;42474;51.660;5.824;2024-01-10T15:08:35;21.64;;;14.17;;
56593;SDS011;42474;51.660;5.824;2024-01-10T15:12:35;24.26;;;14.22;;
56593;SDS011;42474;51.660;5.824;2024-01-10T15:16:35;22.62;;;14.88;;
56593;SDS011;42474;51.660;5.824;2024-01-10T15:20:35;23;;;15.18;;
56593;SDS011;42474;51.660;5.824;2024-01-10T15:24:36;23.42;;;15.89;;
56593;SDS011;42474;51.660;5.824;2024-01-10T15:28:35;21.41;;;14.69;;
56593;SDS011;42474;51.660;5.824;2024-01-10T15:32:35;24.5;;;14.29;;
56593;SDS011;42474;51.660;5.824;2024-01-10T15:36:40;23.51;;;14.93;;
56593;SDS011;42474;51.660;5.824;2024-01-10T15:40:35;24.88;;;16.41;;
56593;SDS011;42474;51.660;5.824;2024-01-10T15:44:38;23.28;;;14.34;;
56593;SDS011;42474;51.660;5.824;2024-01-10T15:48:35;21.78;;;15.12;;
56593;SDS011;42474;51.660;5.824;2024-01-10T15:52:35;25.59;;;14.47;;
56593;SDS011;42474;51.660;5.824;2024-01-10T15:56:35;21.04;;;13.49;;
56593;SDS011;42474;51.660;5.824;2024-01-10T16:00:35;22.93;;;14.7;;
56593;SDS011;42474;51.660;5.824;2024-01-10T16:04:35;21.45;;;13.59;;
56593;SDS011;42474;51.660;5.824;2024-01-10T16:08:35;23.8;;;14.2;;
56593;SDS011;42474;51.660;5.824;2024-01-10T16:12:35;24.43;;;15.5;;
56593;SDS011;42474;51.660;5.824;2024-01-10T16:16:35;24.12;;;15.68;;
56593;SDS011;42474;51.660;5.824;2024-01-10T16:20:35;24.53;;;16.12;;
56593;SDS011;42474;51.660;5.824;2024-01-10T16:24:35;25.15;;;15.53;;
56593;SDS011;42474;51.660;5.824;2024-01-10T16:28:35;25.73;;;16.5;;
56593;SDS011;42474;51.660;5.824;2024-01-10T16:32:47;24.27;;;15.84;;
56593;SDS011;42474;51.660;5.824;2024-01-10T16:36:35;22.44;;;15.17;;
56593;SDS011;42474;51.660;5.824;2024-01-10T16:40:35;26.06;;;16.29;;
56593;SDS011;42474;51.660;5.824;2024-01-10T16:44:35;24.75;;;15.07;;
56593;SDS011;42474;51.660;5.824;2024-01-10T16:48:35;28.64;;;16.02;;
56593;SDS011;42474;51.660;5.824;2024-01-10T16:52:35;25.21;;;15.54;;
56593;SDS011;42474;51.660;5.824;2024-01-10T16:56:35;24.17;;;14.94;;
56593;SDS011;42474;51.660;5.824;2024-01-10T17:00:35;26.39;;;15.68;;
56593;SDS011;42474;51.660;5.824;2024-01-10T17:04:35;29.07;;;15.78;;
56593;SDS011;42474;51.660;5.824;2024-01-10T17:08:35;24.91;;;14.47;;
56593;SDS011;42474;51.660;5.824;2024-01-10T17:12:35;26.27;;;16.59;;
56593;SDS011;42474;51.660;5.824;2024-01-10T17:16:35;27.81;;;16.03;;
56593;SDS011;42474;51.660;5.824;2024-01-10T17:20:35;24.94;;;15.8;;
56593;SDS011;42474;51.660;5.824;2024-01-10T17:24:35;25.41;;;16.27;;
56593;SDS011;42474;51.660;5.824;2024-01-10T17:28:35;28.79;;;17.96;;
56593;SDS011;42474;51.660;5.824;2024-01-10T17:32:35;29.21;;;18.26;;
56593;SDS011;42474;51.660;5.824;2024-01-10T17:36:35;24.98;;;16.87;;
56593;SDS011;42474;51.660;5.824;2024-01-10T17:40:35;33.12;;;18.5;;
56593;SDS011;42474;51.660;5.824;2024-01-10T17:44:35;30.16;;;17.99;;
56593;SDS011;42474;51.660;5.824;2024-01-10T17:48:35;29.76;;;19.58;;
56593;SDS011;42474;51.660;5.824;2024-01-10T17:52:35;33.12;;;20.98;;
56593;SDS011;42474;51.660;5.824;2024-01-10T17:56:35;31.43;;;20.41;;
56593;SDS011;42474;51.660;5.824;2024-01-10T18:00:35;28.1;;;18.22;;
56593;SDS011;42474;51.660;5.824;2024-01-10T18:04:35;28.81;;;18.12;;
56593;SDS011;42474;51.660;5.824;2024-01-10T18:08:35;29.33;;;17.06;;
56593;SDS011;42474;51.660;5.824;2024-01-10T18:12:35;27.54;;;17.34;;
56593;SDS011;42474;51.660;5.824;2024-01-10T18:16:35;27.2;;;17.21;;
56593;SDS011;42474;51.660;5.824;2024-01-10T18:20:35;28.96;;;17.25;;
56593;SDS011;42474;51.660;5.824;2024-01-10T18:24:35;30.07;;;17.91;;
56593;SDS011;42474;51.660;5.824;2024-01-10T18:28:35;31.06;;;18.76;;
56593;SDS011;42474;51.660;5.824;2024-01-10T18:32:35;29.56;;;18.16;;
56593;SDS011;42474;51.660;5.824;2024-01-10T18:36:35;32.64;;;18.29;;
56593;SDS011;42474;51.660;5.824;2024-01-10T18:40:35;28.37;;;17.88;;
56593;SDS011;42474;51.660;5.824;2024-01-10T18:44:35;28.98;;;17.87;;
56593;SDS011;42474;51.660;5.824;2024-01-10T18:48:35;32.18;;;20.35;;
56593;SDS011;42474;51.660;5.824;2024-01-10T18:52:35;30.38;;;19.15;;
56593;SDS011;42474;51.660;5.824;2024-01-10T18:56:35;27.54;;;17.6;;
56593;SDS011;42474;51.660;5.824;2024-01-10T19:00:35;31.73;;;19.76;;
56593;SDS011;42474;51.660;5.824;2024-01-10T19:04:35;31.63;;;19.01;;
56593;SDS011;42474;51.660;5.824;2024-01-10T19:08:35;30.41;;;19.31;;
56593;SDS011;42474;51.660;5.824;2024-01-10T19:12:35;33.01;;;19.17;;
56593;SDS011;42474;51.660;5.824;2024-01-10T19:16:35;33.88;;;20.12;;
56593;SDS011;42474;51.660;5.824;2024-01-10T19:20:35;28.45;;;19.37;;
56593;SDS011;42474;51.660;5.824;2024-01-10T19:24:35;32.82;;;20.35;;
56593;SDS011;42474;51.660;5.824;2024-01-10T19:28:35;34.36;;;21.59;;
56593;SDS011;42474;51.660;5.824;2024-01-10T19:32:35;31.83;;;21.62;;
56593;SDS011;42474;51.660;5.824;2024-01-10T19:36:35;33.89;;;22.38;;
56593;SDS011;42474;51.660;5.824;2024-01-10T19:40:35;33;;;21.86;;
56593;SDS011;42474;51.660;5.824;2024-01-10T19:44:35;34.9;;;21.65;;
56593;SDS011;42474;51.660;5.824;2024-01-10T19:48:35;36.1;;;21.61;;
56593;SDS011;42474;51.660;5.824;2024-01-10T19:52:35;36.22;;;21.68;;
56593;SDS011;42474;51.660;5.824;2024-01-10T19:56:35;34.38;;;21.37;;
56593;SDS011;42474;51.660;5.824;2024-01-10T20:00:35;36.11;;;23.21;;
56593;SDS011;42474;51.660;5.824;2024-01-10T20:04:35;34.49;;;21.99;;
56593;SDS011;42474;51.660;5.824;2024-01-10T20:08:35;35.98;;;22.6;;
56593;SDS011;42474;51.660;5.824;2024-01-10T20:12:35;33.99;;;21.68;;
56593;SDS011;42474;51.660;5.824;2024-01-10T20:16:35;34.92;;;21.96;;
56593;SDS011;42474;51.660;5.824;2024-01-10T20:20:35;34.79;;;21.68;;
56593;SDS011;42474;51.660;5.824;2024-01-10T20:24:35;33.6;;;21.27;;
56593;SDS011;42474;51.660;5.824;2024-01-10T20:28:35;33.81;;;21.64;;
56593;SDS011;42474;51.660;5.824;2024-01-10T20:32:37;35.16;;;21.56;;
56593;SDS011;42474;51.660;5.824;2024-01-10T20:36:35;37.16;;;21.64;;
56593;SDS011;42474;51.660;5.824;2024-01-10T20:40:35;39.17;;;22.72;;
56593;SDS011;42474;51.660;5.824;2024-01-10T20:44:35;38.66;;;22.22;;
56593;SDS011;42474;51.660;5.824;2024-01-10T20:48:35;41.27;;;24.34;;
56593;SDS011;42474;51.660;5.824;2024-01-10T20:52:35;40.37;;;24.01;;
56593;SDS011;42474;51.660;5.824;2024-01-10T20:56:35;41.06;;;24.88;;
56593;SDS011;42474;51.660;5.824;2024-01-10T21:00:35;39.21;;;25.48;;
56593;SDS011;42474;51.660;5.824;2024-01-10T21:04:35;39.56;;;24.07;;
56593;SDS011;42474;51.660;5.824;2024-01-10T21:08:35;40.85;;;24.48;;
56593;SDS011;42474;51.660;5.824;2024-01-10T21:12:35;41.01;;;24.51;;
56593;SDS011;42474;51.660;5.824;2024-01-10T21:16:35;40.51;;;24.28;;
56593;SDS011;42474;51.660;5.824;2024-01-10T21:20:35;38.66;;;24.45;;
56593;SDS011;42474;51.660;5.824;2024-01-10T21:24:35;39.57;;;22.51;;
56593;SDS011;42474;51.660;5.824;2024-01-10T21:28:35;38.76;;;24.94;;
56593;SDS011;42474;51.660;5.824;2024-01-10T21:32:35;42.12;;;23.96;;
56593;SDS011;42474;51.660;5.824;2024-01-10T21:36:35;41.65;;;24.78;;
56593;SDS011;42474;51.660;5.824;2024-01-10T21:40:35;42.33;;;25.65;;
56593;SDS011;42474;51.660;5.824;2024-01-10T21:44:35;42.09;;;25.04;;
56593;SDS011;42474;51.660;5.824;2024-01-10T21:48:35;44.75;;;24.78;;
56593;SDS011;42474;51.660;5.824;2024-01-10T21:52:35;41.5;;;25.04;;
56593;SDS011;42474;51.660;5.824;2024-01-10T21:56:36;40.62;;;23.3;;
56593;SDS011;42474;51.660;5.824;2024-01-10T22:00:35;42.38;;;25.04;;
56593;SDS011;42474;51.660;5.824;2024-01-10T22:04:35;39.57;;;24.15;;
56593;SDS011;42474;51.660;5.824;2024-01-10T22:08:35;36.51;;;22.98;;
56593;SDS011;42474;51.660;5.824;2024-01-10T22:12:35;43.74;;;24.92;;
56593;SDS011;42474;51.660;5.824;2024-01-10T22:16:35;41.46;;;24.51;;
56593;SDS011;42474;51.660;5.824;2024-01-10T22:20:35;42.02;;;25.72;;
56593;SDS011;42474;51.660;5.824;2024-01-10T22:24:35;39.73;;;23.26;;
56593;SDS011;42474;51.660;5.824;2024-01-10T22:28:35;41.53;;;23.52;;
56593;SDS011;42474;51.660;5.824;2024-01-10T22:32:35;42.07;;;24.22;;
56593;SDS011;42474;51.660;5.824;2024-01-10T22:36:35;41.35;;;25.23;;
56593;SDS011;42474;51.660;5.824;2024-01-10T22:40:35;43.85;;;24.37;;
56593;SDS011;42474;51.660;5.824;2024-01-10T22:44:35;38.57;;;22.5;;
56593;SDS011;42474;51.660;5.824;2024-01-10T22:48:35;41.16;;;23.29;;
56593;SDS011;42474;51.660;5.824;2024-01-10T22:52:35;41.4;;;23.64;;
56593;SDS011;42474;51.660;5.824;2024-01-10T22:56:35;40.55;;;22.34;;
56593;SDS011;42474;51.660;5.824;2024-01-10T23:04:35;41.41;;;24.36;;
56593;SDS011;42474;51.660;5.824;2024-01-10T23:08:35;44.55;;;24.94;;
56593;SDS011;42474;51.660;5.824;2024-01-10T23:12:35;37.55;;;23.05;;
56593;SDS011;42474;51.660;5.824;2024-01-10T23:16:35;41.88;;;25.68;;
56593;SDS011;42474;51.660;5.824;2024-01-10T23:20:35;44.05;;;24.88;;
56593;SDS011;42474;51.660;5.824;2024-01-10T23:24:35;43.65;;;23.93;;
56593;SDS011;42474;51.660;5.824;2024-01-10T23:28:36;38.28;;;24.08;;
56593;SDS011;42474;51.660;5.824;2024-01-10T23:32:35;42.18;;;25.89;;
56593;SDS011;42474;51.660;5.824;2024-01-10T23:36:35;43.19;;;25.58;;
56593;SDS011;42474;51.660;5.824;2024-01-10T23:40:35;40.91;;;25.19;;
56593;SDS011;42474;51.660;5.824;2024-01-10T23:44:35;40.51;;;25.6;;
56593;SDS011;42474;51.660;5.824;2024-01-10T23:48:35;42.25;;;24.53;;
56593;SDS011;42474;51.660;5.824;2024-01-10T23:52:35;43.92;;;26.45;;